sensor_id;sensor_type;location;lat;lon;timestamp;P1;durP1;ratioP1;P2;durP2;ratioP2
19205;SDS011;59358;52.134;5.596;2023-08-21T00:01:45;17.20;;;6.43;;
19205;SDS011;59358;52.134;5.596;2023-08-21T00:04:12;11.50;;;5.80;;
19205;SDS011;59358;52.134;5.596;2023-08-21T00:06:39;9.43;;;4.75;;
19205;SDS011;59358;52.134;5.596;2023-08-21T00:09:06;6.63;;;5.25;;
19205;SDS011;59358;52.134;5.596;2023-08-21T00:11:33;10.43;;;5.18;;
19205;SDS011;59358;52.134;5.596;2023-08-21T00:14:01;8.25;;;5.70;;
19205;SDS011;59358;52.134;5.596;2023-08-21T00:16:28;9.38;;;5.40;;
19205;SDS011;59358;52.134;5.596;2023-08-21T00:18:55;10.27;;;5.40;;
19205;SDS011;59358;52.134;5.596;2023-08-21T00:21:22;9.85;;;5.22;;
19205;SDS011;59358;52.134;5.596;2023-08-21T00:23:49;7.45;;;5.07;;
19205;SDS011;59358;52.134;5.596;2023-08-21T00:26:16;8.77;;;4.88;;
19205;SDS011;59358;52.134;5.596;2023-08-21T00:28:43;5.95;;;4.43;;
19205;SDS011;59358;52.134;5.596;2023-08-21T00:31:11;13.27;;;7.05;;
19205;SDS011;59358;52.134;5.596;2023-08-21T00:33:38;13.48;;;6.28;;
19205;SDS011;59358;52.134;5.596;2023-08-21T00:36:05;10.48;;;5.93;;
19205;SDS011;59358;52.134;5.596;2023-08-21T00:38:32;9.27;;;6.03;;
19205;SDS011;59358;52.134;5.596;2023-08-21T00:40:58;6.93;;;5.00;;
19205;SDS011;59358;52.134;5.596;2023-08-21T00:43:25;8.18;;;4.22;;
19205;SDS011;59358;52.134;5.596;2023-08-21T00:45:52;11.85;;;5.70;;
19205;SDS011;59358;52.134;5.596;2023-08-21T00:48:20;11.35;;;6.32;;
19205;SDS011;59358;52.134;5.596;2023-08-21T00:50:47;9.57;;;6.03;;
19205;SDS011;59358;52.134;5.596;2023-08-21T00:53:15;14.55;;;6.43;;
19205;SDS011;59358;52.134;5.596;2023-08-21T00:55:42;8.00;;;5.30;;
19205;SDS011;59358;52.134;5.596;2023-08-21T00:58:09;9.10;;;5.40;;
19205;SDS011;59358;52.134;5.596;2023-08-21T01:00:37;8.25;;;5.28;;
19205;SDS011;59358;52.134;5.596;2023-08-21T01:03:05;7.60;;;5.97;;
19205;SDS011;59358;52.134;5.596;2023-08-21T01:05:33;10.70;;;5.78;;
19205;SDS011;59358;52.134;5.596;2023-08-21T01:08:01;8.55;;;5.63;;
19205;SDS011;59358;52.134;5.596;2023-08-21T01:10:33;11.23;;;6.05;;
19205;SDS011;59358;52.134;5.596;2023-08-21T01:13:06;9.63;;;6.13;;
19205;SDS011;59358;52.134;5.596;2023-08-21T01:15:41;13.05;;;6.32;;
19205;SDS011;59358;52.134;5.596;2023-08-21T01:18:09;10.50;;;6.40;;
19205;SDS011;59358;52.134;5.596;2023-08-21T01:20:38;11.05;;;6.85;;
19205;SDS011;59358;52.134;5.596;2023-08-21T01:23:05;13.50;;;6.70;;
19205;SDS011;59358;52.134;5.596;2023-08-21T01:25:34;12.65;;;6.80;;
19205;SDS011;59358;52.134;5.596;2023-08-21T01:28:00;9.32;;;5.85;;
19205;SDS011;59358;52.134;5.596;2023-08-21T01:30:27;10.70;;;6.30;;
19205;SDS011;59358;52.134;5.596;2023-08-21T01:32:59;11.20;;;6.75;;
19205;SDS011;59358;52.134;5.596;2023-08-21T01:35:30;10.88;;;7.18;;
19205;SDS011;59358;52.134;5.596;2023-08-21T01:37:59;8.38;;;6.68;;
19205;SDS011;59358;52.134;5.596;2023-08-21T01:40:27;12.15;;;6.65;;
19205;SDS011;59358;52.134;5.596;2023-08-21T01:42:55;11.23;;;6.43;;
19205;SDS011;59358;52.134;5.596;2023-08-21T01:45:22;13.15;;;6.25;;
19205;SDS011;59358;52.134;5.596;2023-08-21T01:47:49;8.85;;;6.05;;
19205;SDS011;59358;52.134;5.596;2023-08-21T01:50:16;8.63;;;5.65;;
19205;SDS011;59358;52.134;5.596;2023-08-21T01:52:43;9.85;;;5.97;;
19205;SDS011;59358;52.134;5.596;2023-08-21T01:55:10;12.23;;;7.25;;
19205;SDS011;59358;52.134;5.596;2023-08-21T01:57:37;10.10;;;6.55;;
19205;SDS011;59358;52.134;5.596;2023-08-21T02:00:06;8.85;;;6.88;;
19205;SDS011;59358;52.134;5.596;2023-08-21T02:02:34;9.63;;;6.68;;
19205;SDS011;59358;52.134;5.596;2023-08-21T02:05:01;11.55;;;6.93;;
19205;SDS011;59358;52.134;5.596;2023-08-21T02:07:28;14.30;;;6.85;;
19205;SDS011;59358;52.134;5.596;2023-08-21T02:09:55;12.35;;;6.38;;
19205;SDS011;59358;52.134;5.596;2023-08-21T02:12:22;12.30;;;7.10;;
19205;SDS011;59358;52.134;5.596;2023-08-21T02:14:49;9.95;;;7.78;;
19205;SDS011;59358;52.134;5.596;2023-08-21T02:17:17;15.70;;;8.20;;
19205;SDS011;59358;52.134;5.596;2023-08-21T02:19:44;15.43;;;8.93;;
19205;SDS011;59358;52.134;5.596;2023-08-21T02:22:11;17.33;;;8.13;;
19205;SDS011;59358;52.134;5.596;2023-08-21T02:24:37;13.38;;;7.53;;
19205;SDS011;59358;52.134;5.596;2023-08-21T02:27:04;12.00;;;7.13;;
19205;SDS011;59358;52.134;5.596;2023-08-21T02:29:31;13.23;;;6.70;;
19205;SDS011;59358;52.134;5.596;2023-08-21T02:31:58;9.48;;;6.05;;
19205;SDS011;59358;52.134;5.596;2023-08-21T02:34:26;14.25;;;6.97;;
19205;SDS011;59358;52.134;5.596;2023-08-21T02:36:53;20.23;;;7.45;;
19205;SDS011;59358;52.134;5.596;2023-08-21T02:39:20;9.27;;;6.60;;
19205;SDS011;59358;52.134;5.596;2023-08-21T02:41:47;17.27;;;8.70;;
19205;SDS011;59358;52.134;5.596;2023-08-21T02:44:13;11.98;;;8.38;;
19205;SDS011;59358;52.134;5.596;2023-08-21T02:46:40;10.30;;;7.30;;
19205;SDS011;59358;52.134;5.596;2023-08-21T02:49:07;10.85;;;7.40;;
19205;SDS011;59358;52.134;5.596;2023-08-21T02:51:35;13.38;;;7.07;;
19205;SDS011;59358;52.134;5.596;2023-08-21T02:54:02;14.23;;;7.10;;
19205;SDS011;59358;52.134;5.596;2023-08-21T02:56:29;11.57;;;6.88;;
19205;SDS011;59358;52.134;5.596;2023-08-21T02:58:56;12.18;;;6.28;;
19205;SDS011;59358;52.134;5.596;2023-08-21T03:01:23;9.02;;;6.00;;
19205;SDS011;59358;52.134;5.596;2023-08-21T03:03:50;12.40;;;6.20;;
19205;SDS011;59358;52.134;5.596;2023-08-21T03:06:17;12.30;;;7.00;;
19205;SDS011;59358;52.134;5.596;2023-08-21T03:08:45;10.73;;;6.63;;
19205;SDS011;59358;52.134;5.596;2023-08-21T03:11:12;12.60;;;7.05;;
19205;SDS011;59358;52.134;5.596;2023-08-21T03:13:39;11.45;;;6.88;;
19205;SDS011;59358;52.134;5.596;2023-08-21T03:16:06;10.05;;;5.97;;
19205;SDS011;59358;52.134;5.596;2023-08-21T03:18:34;10.63;;;6.28;;
19205;SDS011;59358;52.134;5.596;2023-08-21T03:21:19;7.60;;;6.35;;
19205;SDS011;59358;52.134;5.596;2023-08-21T03:23:49;10.95;;;6.60;;
19205;SDS011;59358;52.134;5.596;2023-08-21T03:26:17;11.18;;;6.72;;
19205;SDS011;59358;52.134;5.596;2023-08-21T03:28:43;9.20;;;6.60;;
19205;SDS011;59358;52.134;5.596;2023-08-21T03:31:10;8.32;;;6.20;;
19205;SDS011;59358;52.134;5.596;2023-08-21T03:33:37;11.63;;;7.00;;
19205;SDS011;59358;52.134;5.596;2023-08-21T03:36:04;13.13;;;6.60;;
19205;SDS011;59358;52.134;5.596;2023-08-21T03:38:31;10.57;;;5.80;;
19205;SDS011;59358;52.134;5.596;2023-08-21T03:40:59;7.63;;;6.13;;
19205;SDS011;59358;52.134;5.596;2023-08-21T03:43:26;7.47;;;5.90;;
19205;SDS011;59358;52.134;5.596;2023-08-21T03:45:53;10.45;;;6.57;;
19205;SDS011;59358;52.134;5.596;2023-08-21T03:48:20;10.80;;;6.82;;
19205;SDS011;59358;52.134;5.596;2023-08-21T03:50:48;13.68;;;6.72;;
19205;SDS011;59358;52.134;5.596;2023-08-21T03:53:15;11.73;;;7.10;;
19205;SDS011;59358;52.134;5.596;2023-08-21T03:55:42;9.90;;;6.90;;
19205;SDS011;59358;52.134;5.596;2023-08-21T03:58:10;9.43;;;6.45;;
19205;SDS011;59358;52.134;5.596;2023-08-21T04:00:37;10.23;;;6.65;;
19205;SDS011;59358;52.134;5.596;2023-08-21T04:03:04;13.15;;;7.07;;
19205;SDS011;59358;52.134;5.596;2023-08-21T04:05:31;13.95;;;7.38;;
19205;SDS011;59358;52.134;5.596;2023-08-21T04:07:57;11.10;;;8.25;;
19205;SDS011;59358;52.134;5.596;2023-08-21T04:10:24;12.23;;;8.45;;
19205;SDS011;59358;52.134;5.596;2023-08-21T04:12:51;15.57;;;8.25;;
19205;SDS011;59358;52.134;5.596;2023-08-21T04:15:19;9.93;;;7.35;;
19205;SDS011;59358;52.134;5.596;2023-08-21T04:17:46;11.10;;;6.82;;
19205;SDS011;59358;52.134;5.596;2023-08-21T04:20:13;9.73;;;7.30;;
19205;SDS011;59358;52.134;5.596;2023-08-21T04:22:40;10.88;;;7.13;;
19205;SDS011;59358;52.134;5.596;2023-08-21T04:25:07;14.27;;;7.28;;
19205;SDS011;59358;52.134;5.596;2023-08-21T04:27:34;10.35;;;6.80;;
19205;SDS011;59358;52.134;5.596;2023-08-21T04:30:01;10.90;;;7.32;;
19205;SDS011;59358;52.134;5.596;2023-08-21T04:32:29;13.13;;;7.32;;
19205;SDS011;59358;52.134;5.596;2023-08-21T04:34:56;13.68;;;7.18;;
19205;SDS011;59358;52.134;5.596;2023-08-21T04:37:23;11.45;;;6.82;;
19205;SDS011;59358;52.134;5.596;2023-08-21T04:39:50;11.48;;;6.45;;
19205;SDS011;59358;52.134;5.596;2023-08-21T04:42:17;10.88;;;7.22;;
19205;SDS011;59358;52.134;5.596;2023-08-21T04:44:44;9.90;;;7.28;;
19205;SDS011;59358;52.134;5.596;2023-08-21T04:47:20;13.23;;;6.90;;
19205;SDS011;59358;52.134;5.596;2023-08-21T04:49:49;15.57;;;7.25;;
19205;SDS011;59358;52.134;5.596;2023-08-21T04:52:17;14.63;;;7.65;;
19205;SDS011;59358;52.134;5.596;2023-08-21T04:54:44;16.45;;;7.88;;
19205;SDS011;59358;52.134;5.596;2023-08-21T04:57:10;10.98;;;6.75;;
19205;SDS011;59358;52.134;5.596;2023-08-21T04:59:37;10.05;;;6.82;;
19205;SDS011;59358;52.134;5.596;2023-08-21T05:02:04;11.02;;;6.60;;
19205;SDS011;59358;52.134;5.596;2023-08-21T05:04:31;9.85;;;6.72;;
19205;SDS011;59358;52.134;5.596;2023-08-21T05:07:00;12.38;;;6.90;;
19205;SDS011;59358;52.134;5.596;2023-08-21T05:09:27;11.20;;;7.10;;
19205;SDS011;59358;52.134;5.596;2023-08-21T05:11:53;13.30;;;6.60;;
19205;SDS011;59358;52.134;5.596;2023-08-21T05:14:21;10.85;;;7.70;;
19205;SDS011;59358;52.134;5.596;2023-08-21T05:16:48;16.77;;;6.78;;
19205;SDS011;59358;52.134;5.596;2023-08-21T05:19:15;14.07;;;6.35;;
19205;SDS011;59358;52.134;5.596;2023-08-21T05:21:42;13.05;;;6.07;;
19205;SDS011;59358;52.134;5.596;2023-08-21T05:24:11;11.60;;;6.65;;
19205;SDS011;59358;52.134;5.596;2023-08-21T05:26:37;10.95;;;6.40;;
19205;SDS011;59358;52.134;5.596;2023-08-21T05:29:05;9.57;;;5.57;;
19205;SDS011;59358;52.134;5.596;2023-08-21T05:31:31;16.58;;;6.32;;
19205;SDS011;59358;52.134;5.596;2023-08-21T05:33:58;15.80;;;6.47;;
19205;SDS011;59358;52.134;5.596;2023-08-21T05:36:25;12.40;;;6.20;;
19205;SDS011;59358;52.134;5.596;2023-08-21T05:38:52;12.68;;;6.15;;
19205;SDS011;59358;52.134;5.596;2023-08-21T05:41:20;17.48;;;6.70;;
19205;SDS011;59358;52.134;5.596;2023-08-21T05:43:47;8.95;;;5.60;;
19205;SDS011;59358;52.134;5.596;2023-08-21T05:46:14;18.73;;;7.05;;
19205;SDS011;59358;52.134;5.596;2023-08-21T05:48:41;9.32;;;5.43;;
19205;SDS011;59358;52.134;5.596;2023-08-21T05:51:07;16.45;;;6.85;;
19205;SDS011;59358;52.134;5.596;2023-08-21T05:53:34;18.15;;;5.75;;
19205;SDS011;59358;52.134;5.596;2023-08-21T05:56:02;13.23;;;5.57;;
19205;SDS011;59358;52.134;5.596;2023-08-21T05:58:30;14.73;;;6.13;;
19205;SDS011;59358;52.134;5.596;2023-08-21T06:00:58;14.27;;;6.50;;
19205;SDS011;59358;52.134;5.596;2023-08-21T06:03:25;10.18;;;5.75;;
19205;SDS011;59358;52.134;5.596;2023-08-21T06:05:51;9.20;;;5.45;;
19205;SDS011;59358;52.134;5.596;2023-08-21T06:08:18;9.98;;;5.93;;
19205;SDS011;59358;52.134;5.596;2023-08-21T06:10:45;11.18;;;6.38;;
19205;SDS011;59358;52.134;5.596;2023-08-21T06:13:17;13.15;;;5.45;;
19205;SDS011;59358;52.134;5.596;2023-08-21T06:15:45;12.50;;;5.68;;
19205;SDS011;59358;52.134;5.596;2023-08-21T06:18:12;13.68;;;5.75;;
19205;SDS011;59358;52.134;5.596;2023-08-21T06:20:40;11.77;;;5.70;;
19205;SDS011;59358;52.134;5.596;2023-08-21T06:23:08;9.15;;;5.10;;
19205;SDS011;59358;52.134;5.596;2023-08-21T06:25:35;14.45;;;5.88;;
19205;SDS011;59358;52.134;5.596;2023-08-21T06:28:02;13.15;;;5.07;;
19205;SDS011;59358;52.134;5.596;2023-08-21T06:30:29;20.75;;;5.80;;
19205;SDS011;59358;52.134;5.596;2023-08-21T06:32:58;12.88;;;6.90;;
19205;SDS011;59358;52.134;5.596;2023-08-21T06:35:24;9.65;;;5.50;;
19205;SDS011;59358;52.134;5.596;2023-08-21T06:37:52;13.13;;;5.95;;
19205;SDS011;59358;52.134;5.596;2023-08-21T06:40:20;10.32;;;5.93;;
19205;SDS011;59358;52.134;5.596;2023-08-21T06:42:46;10.45;;;5.38;;
19205;SDS011;59358;52.134;5.596;2023-08-21T06:45:16;12.30;;;5.10;;
19205;SDS011;59358;52.134;5.596;2023-08-21T06:47:44;14.63;;;5.63;;
19205;SDS011;59358;52.134;5.596;2023-08-21T06:50:12;10.50;;;5.18;;
19205;SDS011;59358;52.134;5.596;2023-08-21T06:52:39;13.45;;;4.50;;
19205;SDS011;59358;52.134;5.596;2023-08-21T06:55:06;11.73;;;5.05;;
19205;SDS011;59358;52.134;5.596;2023-08-21T06:57:34;8.68;;;4.43;;
19205;SDS011;59358;52.134;5.596;2023-08-21T07:00:02;12.93;;;5.13;;
19205;SDS011;59358;52.134;5.596;2023-08-21T07:02:30;10.05;;;4.72;;
19205;SDS011;59358;52.134;5.596;2023-08-21T07:04:57;9.57;;;4.43;;
19205;SDS011;59358;52.134;5.596;2023-08-21T07:07:25;11.55;;;4.75;;
19205;SDS011;59358;52.134;5.596;2023-08-21T07:09:52;16.13;;;5.40;;
19205;SDS011;59358;52.134;5.596;2023-08-21T07:12:19;10.95;;;4.57;;
19205;SDS011;59358;52.134;5.596;2023-08-21T07:14:47;13.77;;;4.45;;
19205;SDS011;59358;52.134;5.596;2023-08-21T07:17:14;12.80;;;4.38;;
19205;SDS011;59358;52.134;5.596;2023-08-21T07:19:41;7.93;;;3.65;;
19205;SDS011;59358;52.134;5.596;2023-08-21T07:22:08;10.65;;;4.55;;
19205;SDS011;59358;52.134;5.596;2023-08-21T07:24:36;10.68;;;4.70;;
19205;SDS011;59358;52.134;5.596;2023-08-21T07:27:03;12.38;;;4.85;;
19205;SDS011;59358;52.134;5.596;2023-08-21T07:29:31;10.50;;;3.83;;
19205;SDS011;59358;52.134;5.596;2023-08-21T07:31:58;6.07;;;3.20;;
19205;SDS011;59358;52.134;5.596;2023-08-21T07:34:25;12.35;;;4.20;;
19205;SDS011;59358;52.134;5.596;2023-08-21T07:36:51;8.25;;;3.92;;
19205;SDS011;59358;52.134;5.596;2023-08-21T07:39:21;9.45;;;3.95;;
19205;SDS011;59358;52.134;5.596;2023-08-21T07:41:50;9.98;;;3.88;;
19205;SDS011;59358;52.134;5.596;2023-08-21T07:44:18;12.98;;;3.90;;
19205;SDS011;59358;52.134;5.596;2023-08-21T07:46:45;11.73;;;4.53;;
19205;SDS011;59358;52.134;5.596;2023-08-21T07:49:12;9.82;;;4.20;;
19205;SDS011;59358;52.134;5.596;2023-08-21T07:51:38;9.63;;;3.47;;
19205;SDS011;59358;52.134;5.596;2023-08-21T07:54:05;10.50;;;3.63;;
19205;SDS011;59358;52.134;5.596;2023-08-21T07:56:32;9.68;;;4.03;;
19205;SDS011;59358;52.134;5.596;2023-08-21T07:59:01;9.90;;;3.30;;
19205;SDS011;59358;52.134;5.596;2023-08-21T08:01:28;7.53;;;3.03;;
19205;SDS011;59358;52.134;5.596;2023-08-21T08:03:55;6.65;;;2.97;;
19205;SDS011;59358;52.134;5.596;2023-08-21T08:06:25;10.43;;;3.20;;
19205;SDS011;59358;52.134;5.596;2023-08-21T08:08:52;13.60;;;4.13;;
19205;SDS011;59358;52.134;5.596;2023-08-21T08:11:19;9.07;;;3.38;;
19205;SDS011;59358;52.134;5.596;2023-08-21T08:13:45;5.22;;;1.85;;
19205;SDS011;59358;52.134;5.596;2023-08-21T08:16:13;4.80;;;2.03;;
19205;SDS011;59358;52.134;5.596;2023-08-21T08:18:41;7.35;;;3.00;;
19205;SDS011;59358;52.134;5.596;2023-08-21T08:21:08;8.77;;;3.20;;
19205;SDS011;59358;52.134;5.596;2023-08-21T08:23:35;8.50;;;2.63;;
19205;SDS011;59358;52.134;5.596;2023-08-21T08:26:02;5.40;;;2.15;;
19205;SDS011;59358;52.134;5.596;2023-08-21T08:28:29;5.00;;;2.50;;
19205;SDS011;59358;52.134;5.596;2023-08-21T08:30:56;4.80;;;2.42;;
19205;SDS011;59358;52.134;5.596;2023-08-21T08:33:25;10.07;;;3.03;;
19205;SDS011;59358;52.134;5.596;2023-08-21T08:35:52;8.30;;;3.03;;
19205;SDS011;59358;52.134;5.596;2023-08-21T08:38:18;7.72;;;3.42;;
19205;SDS011;59358;52.134;5.596;2023-08-21T08:40:46;9.93;;;3.85;;
19205;SDS011;59358;52.134;5.596;2023-08-21T08:43:14;8.55;;;3.50;;
19205;SDS011;59358;52.134;5.596;2023-08-21T08:45:41;7.30;;;2.42;;
19205;SDS011;59358;52.134;5.596;2023-08-21T08:48:11;7.25;;;2.70;;
19205;SDS011;59358;52.134;5.596;2023-08-21T08:50:40;5.53;;;2.10;;
19205;SDS011;59358;52.134;5.596;2023-08-21T08:53:08;7.28;;;2.28;;
19205;SDS011;59358;52.134;5.596;2023-08-21T08:55:36;8.65;;;2.45;;
19205;SDS011;59358;52.134;5.596;2023-08-21T08:58:03;7.60;;;2.55;;
19205;SDS011;59358;52.134;5.596;2023-08-21T09:00:30;6.47;;;2.72;;
19205;SDS011;59358;52.134;5.596;2023-08-21T09:02:58;7.20;;;3.25;;
19205;SDS011;59358;52.134;5.596;2023-08-21T09:05:25;4.53;;;2.30;;
19205;SDS011;59358;52.134;5.596;2023-08-21T09:08:10;9.88;;;3.08;;
19205;SDS011;59358;52.134;5.596;2023-08-21T09:10:37;9.45;;;3.22;;
19205;SDS011;59358;52.134;5.596;2023-08-21T09:13:08;7.78;;;2.42;;
19205;SDS011;59358;52.134;5.596;2023-08-21T09:15:38;5.65;;;2.33;;
19205;SDS011;59358;52.134;5.596;2023-08-21T09:18:09;8.55;;;2.30;;
19205;SDS011;59358;52.134;5.596;2023-08-21T09:20:37;6.95;;;2.45;;
19205;SDS011;59358;52.134;5.596;2023-08-21T09:23:04;6.82;;;2.35;;
19205;SDS011;59358;52.134;5.596;2023-08-21T09:25:36;7.70;;;2.70;;
19205;SDS011;59358;52.134;5.596;2023-08-21T09:28:05;9.30;;;3.92;;
19205;SDS011;59358;52.134;5.596;2023-08-21T09:30:45;8.20;;;2.90;;
19205;SDS011;59358;52.134;5.596;2023-08-21T09:33:13;11.80;;;3.33;;
19205;SDS011;59358;52.134;5.596;2023-08-21T09:35:43;7.38;;;2.55;;
19205;SDS011;59358;52.134;5.596;2023-08-21T09:38:10;7.63;;;2.42;;
19205;SDS011;59358;52.134;5.596;2023-08-21T09:40:41;8.40;;;2.42;;
19205;SDS011;59358;52.134;5.596;2023-08-21T09:43:09;6.65;;;2.70;;
19205;SDS011;59358;52.134;5.596;2023-08-21T09:45:37;9.45;;;2.90;;
19205;SDS011;59358;52.134;5.596;2023-08-21T09:48:04;9.20;;;2.80;;
19205;SDS011;59358;52.134;5.596;2023-08-21T09:50:32;7.35;;;2.17;;
19205;SDS011;59358;52.134;5.596;2023-08-21T09:53:01;10.55;;;3.08;;
19205;SDS011;59358;52.134;5.596;2023-08-21T09:55:29;9.13;;;3.55;;
19205;SDS011;59358;52.134;5.596;2023-08-21T09:58:00;6.10;;;2.70;;
19205;SDS011;59358;52.134;5.596;2023-08-21T10:00:30;8.07;;;2.47;;
19205;SDS011;59358;52.134;5.596;2023-08-21T10:03:00;5.97;;;2.28;;
19205;SDS011;59358;52.134;5.596;2023-08-21T10:05:29;9.23;;;3.05;;
19205;SDS011;59358;52.134;5.596;2023-08-21T10:07:56;6.45;;;2.42;;
19205;SDS011;59358;52.134;5.596;2023-08-21T10:10:26;7.50;;;2.67;;
19205;SDS011;59358;52.134;5.596;2023-08-21T10:12:56;5.43;;;2.20;;
19205;SDS011;59358;52.134;5.596;2023-08-21T10:15:25;6.97;;;3.05;;
19205;SDS011;59358;52.134;5.596;2023-08-21T10:17:52;9.85;;;2.55;;
19205;SDS011;59358;52.134;5.596;2023-08-21T10:20:20;6.95;;;2.33;;
19205;SDS011;59358;52.134;5.596;2023-08-21T10:22:49;10.77;;;2.28;;
19205;SDS011;59358;52.134;5.596;2023-08-21T10:25:19;5.05;;;2.75;;
19205;SDS011;59358;52.134;5.596;2023-08-21T10:27:49;3.85;;;2.17;;
19205;SDS011;59358;52.134;5.596;2023-08-21T10:30:19;5.20;;;1.92;;
19205;SDS011;59358;52.134;5.596;2023-08-21T10:32:49;5.80;;;2.08;;
19205;SDS011;59358;52.134;5.596;2023-08-21T10:35:21;5.43;;;2.20;;
19205;SDS011;59358;52.134;5.596;2023-08-21T10:40:36;3.88;;;1.90;;
19205;SDS011;59358;52.134;5.596;2023-08-21T10:43:04;6.20;;;2.40;;
19205;SDS011;59358;52.134;5.596;2023-08-21T10:45:54;5.82;;;2.05;;
19205;SDS011;59358;52.134;5.596;2023-08-21T10:48:22;3.63;;;1.58;;
19205;SDS011;59358;52.134;5.596;2023-08-21T10:50:49;4.22;;;2.03;;
19205;SDS011;59358;52.134;5.596;2023-08-21T10:53:17;8.85;;;1.95;;
19205;SDS011;59358;52.134;5.596;2023-08-21T10:55:49;2.97;;;1.50;;
19205;SDS011;59358;52.134;5.596;2023-08-21T10:58:19;5.47;;;1.92;;
19205;SDS011;59358;52.134;5.596;2023-08-21T11:00:46;3.63;;;1.48;;
19205;SDS011;59358;52.134;5.596;2023-08-21T11:03:14;8.57;;;2.00;;
19205;SDS011;59358;52.134;5.596;2023-08-21T11:05:43;5.20;;;1.45;;
19205;SDS011;59358;52.134;5.596;2023-08-21T11:08:09;5.22;;;1.73;;
19205;SDS011;59358;52.134;5.596;2023-08-21T11:10:37;5.20;;;1.80;;
19205;SDS011;59358;52.134;5.596;2023-08-21T11:13:06;4.90;;;1.65;;
19205;SDS011;59358;52.134;5.596;2023-08-21T11:15:33;4.55;;;2.00;;
19205;SDS011;59358;52.134;5.596;2023-08-21T11:18:01;3.75;;;1.42;;
19205;SDS011;59358;52.134;5.596;2023-08-21T11:20:29;4.45;;;1.52;;
19205;SDS011;59358;52.134;5.596;2023-08-21T11:22:58;5.53;;;1.52;;
19205;SDS011;59358;52.134;5.596;2023-08-21T11:25:27;5.72;;;1.90;;
19205;SDS011;59358;52.134;5.596;2023-08-21T11:27:54;5.50;;;1.95;;
19205;SDS011;59358;52.134;5.596;2023-08-21T11:30:26;8.15;;;2.40;;
19205;SDS011;59358;52.134;5.596;2023-08-21T11:33:04;4.13;;;1.45;;
19205;SDS011;59358;52.134;5.596;2023-08-21T11:35:31;5.10;;;1.65;;
19205;SDS011;59358;52.134;5.596;2023-08-21T11:37:59;3.75;;;1.35;;
19205;SDS011;59358;52.134;5.596;2023-08-21T11:40:26;5.15;;;1.42;;
19205;SDS011;59358;52.134;5.596;2023-08-21T11:42:53;3.50;;;1.15;;
19205;SDS011;59358;52.134;5.596;2023-08-21T11:45:26;6.35;;;1.88;;
19205;SDS011;59358;52.134;5.596;2023-08-21T11:47:55;5.07;;;1.70;;
19205;SDS011;59358;52.134;5.596;2023-08-21T11:50:22;4.10;;;1.45;;
19205;SDS011;59358;52.134;5.596;2023-08-21T11:52:50;4.18;;;1.35;;
19205;SDS011;59358;52.134;5.596;2023-08-21T11:55:19;5.13;;;1.83;;
19205;SDS011;59358;52.134;5.596;2023-08-21T11:57:46;3.22;;;1.73;;
19205;SDS011;59358;52.134;5.596;2023-08-21T12:00:14;4.55;;;1.75;;
19205;SDS011;59358;52.134;5.596;2023-08-21T12:02:43;6.78;;;1.70;;
19205;SDS011;59358;52.134;5.596;2023-08-21T12:05:19;5.28;;;2.03;;
19205;SDS011;59358;52.134;5.596;2023-08-21T12:07:46;7.47;;;1.67;;
19205;SDS011;59358;52.134;5.596;2023-08-21T12:10:13;4.53;;;1.83;;
19205;SDS011;59358;52.134;5.596;2023-08-21T12:12:41;6.47;;;1.50;;
19205;SDS011;59358;52.134;5.596;2023-08-21T12:15:08;6.25;;;1.60;;
19205;SDS011;59358;52.134;5.596;2023-08-21T12:17:35;4.13;;;2.08;;
19205;SDS011;59358;52.134;5.596;2023-08-21T12:20:02;4.28;;;1.50;;
19205;SDS011;59358;52.134;5.596;2023-08-21T12:22:35;5.43;;;1.73;;
19205;SDS011;59358;52.134;5.596;2023-08-21T12:25:02;4.32;;;1.35;;
19205;SDS011;59358;52.134;5.596;2023-08-21T12:27:30;3.50;;;1.55;;
19205;SDS011;59358;52.134;5.596;2023-08-21T12:29:58;3.92;;;1.73;;
19205;SDS011;59358;52.134;5.596;2023-08-21T12:32:25;4.70;;;1.63;;
19205;SDS011;59358;52.134;5.596;2023-08-21T12:34:52;3.47;;;1.42;;
19205;SDS011;59358;52.134;5.596;2023-08-21T12:37:19;5.10;;;1.40;;
19205;SDS011;59358;52.134;5.596;2023-08-21T12:39:46;6.82;;;1.80;;
19205;SDS011;59358;52.134;5.596;2023-08-21T12:42:12;4.15;;;1.30;;
19205;SDS011;59358;52.134;5.596;2023-08-21T12:44:39;5.95;;;1.98;;
19205;SDS011;59358;52.134;5.596;2023-08-21T12:47:07;5.43;;;2.10;;
19205;SDS011;59358;52.134;5.596;2023-08-21T12:49:34;3.50;;;1.35;;
19205;SDS011;59358;52.134;5.596;2023-08-21T12:52:01;3.60;;;1.40;;
19205;SDS011;59358;52.134;5.596;2023-08-21T12:54:30;4.55;;;1.23;;
19205;SDS011;59358;52.134;5.596;2023-08-21T12:56:57;1.63;;;1.08;;
19205;SDS011;59358;52.134;5.596;2023-08-21T12:59:24;4.75;;;1.30;;
19205;SDS011;59358;52.134;5.596;2023-08-21T13:01:51;4.97;;;1.60;;
19205;SDS011;59358;52.134;5.596;2023-08-21T13:04:19;3.45;;;1.30;;
19205;SDS011;59358;52.134;5.596;2023-08-21T13:06:46;3.72;;;1.30;;
19205;SDS011;59358;52.134;5.596;2023-08-21T13:09:13;2.28;;;1.10;;
19205;SDS011;59358;52.134;5.596;2023-08-21T13:11:39;3.95;;;1.30;;
19205;SDS011;59358;52.134;5.596;2023-08-21T13:14:06;5.32;;;1.63;;
19205;SDS011;59358;52.134;5.596;2023-08-21T13:16:33;3.97;;;1.70;;
19205;SDS011;59358;52.134;5.596;2023-08-21T13:19:00;4.82;;;2.08;;
19205;SDS011;59358;52.134;5.596;2023-08-21T13:21:28;2.65;;;1.25;;
19205;SDS011;59358;52.134;5.596;2023-08-21T13:23:55;6.13;;;1.60;;
19205;SDS011;59358;52.134;5.596;2023-08-21T13:26:22;4.43;;;1.60;;
19205;SDS011;59358;52.134;5.596;2023-08-21T13:28:50;5.55;;;1.40;;
19205;SDS011;59358;52.134;5.596;2023-08-21T13:31:17;3.95;;;1.23;;
19205;SDS011;59358;52.134;5.596;2023-08-21T13:33:44;3.38;;;1.50;;
19205;SDS011;59358;52.134;5.596;2023-08-21T13:36:11;3.85;;;1.20;;
19205;SDS011;59358;52.134;5.596;2023-08-21T13:38:39;4.43;;;1.42;;
19205;SDS011;59358;52.134;5.596;2023-08-21T13:41:06;3.78;;;1.60;;
19205;SDS011;59358;52.134;5.596;2023-08-21T13:43:34;2.72;;;1.27;;
19205;SDS011;59358;52.134;5.596;2023-08-21T13:46:01;4.30;;;1.40;;
19205;SDS011;59358;52.134;5.596;2023-08-21T13:48:29;4.55;;;1.50;;
19205;SDS011;59358;52.134;5.596;2023-08-21T13:50:56;5.95;;;1.48;;
19205;SDS011;59358;52.134;5.596;2023-08-21T13:53:23;3.42;;;1.70;;
19205;SDS011;59358;52.134;5.596;2023-08-21T13:55:52;4.32;;;1.80;;
19205;SDS011;59358;52.134;5.596;2023-08-21T13:58:18;3.50;;;1.63;;
19205;SDS011;59358;52.134;5.596;2023-08-21T14:00:46;5.32;;;1.83;;
19205;SDS011;59358;52.134;5.596;2023-08-21T14:03:13;4.38;;;2.28;;
19205;SDS011;59358;52.134;5.596;2023-08-21T14:05:40;5.10;;;1.75;;
19205;SDS011;59358;52.134;5.596;2023-08-21T14:08:07;3.63;;;1.90;;
19205;SDS011;59358;52.134;5.596;2023-08-21T14:10:34;7.75;;;2.10;;
19205;SDS011;59358;52.134;5.596;2023-08-21T14:13:02;5.13;;;2.08;;
19205;SDS011;59358;52.134;5.596;2023-08-21T14:15:31;5.78;;;1.90;;
19205;SDS011;59358;52.134;5.596;2023-08-21T14:17:58;4.18;;;1.60;;
19205;SDS011;59358;52.134;5.596;2023-08-21T14:20:25;3.47;;;1.40;;
19205;SDS011;59358;52.134;5.596;2023-08-21T14:22:52;3.88;;;1.52;;
19205;SDS011;59358;52.134;5.596;2023-08-21T14:25:18;4.47;;;1.98;;
19205;SDS011;59358;52.134;5.596;2023-08-21T14:27:45;6.30;;;1.80;;
19205;SDS011;59358;52.134;5.596;2023-08-21T14:30:15;2.28;;;1.70;;
19205;SDS011;59358;52.134;5.596;2023-08-21T14:32:42;6.90;;;2.13;;
19205;SDS011;59358;52.134;5.596;2023-08-21T14:35:09;4.18;;;2.03;;
19205;SDS011;59358;52.134;5.596;2023-08-21T14:37:35;6.07;;;1.67;;
19205;SDS011;59358;52.134;5.596;2023-08-21T14:40:04;4.93;;;2.00;;
19205;SDS011;59358;52.134;5.596;2023-08-21T14:42:34;8.57;;;2.28;;
19205;SDS011;59358;52.134;5.596;2023-08-21T14:45:01;4.30;;;2.00;;
19205;SDS011;59358;52.134;5.596;2023-08-21T14:47:30;4.05;;;1.70;;
19205;SDS011;59358;52.134;5.596;2023-08-21T14:49:57;4.22;;;2.00;;